Nearby METAR Reports

EGNX - East Midlands, United Kingdom
Distance: S 18mi, 28km
Updated: 17/11/2019 22:20
Partly cloudy
Partly cloudy
 Wind from N
Wind: N 12 mph , 19 km/h
Temperature: 5°C
Wind Chill: 1°C
Dew Point: 4°C
Humidity: 93%
Barometer: 1015 hPa
Clouds: Partly cloudy
Visibility: 6 miles , 10 km
Cloud details: Partly cloudy 1067 m
2019/11/17 22:20 EGNX 172220Z 35010KT 9999 SCT035 05/04 Q1015
EGCN - Doncaster Sheffi, United Kingdom
Distance: NNE 31mi, 50km
Updated: 17/11/2019 22:20
Clear
Clear
 Wind from NNW
Wind: NNW 8 mph , 13 km/h
Temperature: 5°C
Wind Chill: 2°C
Dew Point: 4°C
Humidity: 93%
Barometer: 1017 hPa
Summary: Clear
Visibility: greater than 7 miles , 10 km
2019/11/17 22:20 EGCN 172220Z 33007KT 310V010 CAVOK 05/04 Q1017
EGYE - Barkston Heath R, United Kingdom
Distance: ESE 31mi, 50km
Updated: 15/11/2019 14:50
NOT Current
Mostly cloudy
Mostly cloudy
 Wind from N
Wind: N 17 mph , 28 km/h
Barometer: 1005 hPa
Clouds: Mostly cloudy
Visibility: 6 miles , 10 km
Cloud details: Few Clouds 457 m
Partly cloudy 914 m
Mostly cloudy 6096 m
2019/11/15 14:50 EGYE 151450Z 01015KT 9999 FEW015 SCT030 BKN200 ///// Q1005 RMK BLU
 
EGXW - Waddington Raf, United Kingdom
Distance: ENE 33mi, 53km
Updated: 17/11/2019 21:50
Few Clouds
Few Clouds
 Wind from N
Wind: N 12 mph , 19 km/h
Temperature: 6°C
Wind Chill: 3°C
Dew Point: 4°C
Humidity: 87%
Barometer: 1015 hPa
Clouds: Few Clouds
Visibility: 6 miles , 10 km
Cloud details: Few Clouds 3353 m
2019/11/17 21:50 EGXW 172150Z AUTO 36010KT 9999 FEW110/// 06/04 Q1015
EGYD - Cranwell Raf, United Kingdom
Distance: E 33mi, 53km
Updated: 17/11/2019 21:50
Partly cloudy
Partly cloudy
 Wind from N
Wind: N 13 mph , 20 km/h
Temperature: 6°C
Wind Chill: 2°C
Dew Point: 5°C
Humidity: 93%
Barometer: 1015 hPa
Clouds: Partly cloudy
Visibility: 6 miles , 10 km
Cloud details: Few Clouds 1128 m
Partly cloudy 3353 m
2019/11/17 21:50 EGYD 172150Z AUTO 36011KT 9999 // FEW037/// SCT110/// 06/05 Q1015
EGXP - Scampton Raf, United Kingdom
Distance: ENE 35mi, 56km
Updated: 17/11/2019 21:50
Clear
Clear
 Wind from N
Wind: N 10 mph , 17 km/h
Temperature: 5°C
Wind Chill: 2°C
Dew Point: 4°C
Humidity: 93%
Barometer: 1015 hPa
Clouds: Clear
Visibility: 6 miles , 10 km
2019/11/17 21:50 EGXP 172150Z AUTO 35009KT 9999 // NCD 05/04 Q1015
 
EGCC - Manchester Intl, United Kingdom
Distance: WNW 45mi, 72km
Updated: 17/11/2019 22:20
Mostly cloudy
Mostly cloudy
 Wind from NNW
Wind: NNW 7 mph , 11 km/h
Temperature: 6°C
Wind Chill: 4°C
Dew Point: 4°C
Humidity: 87%
Barometer: 1017 hPa
Clouds: Mostly cloudy
Visibility: 6 miles , 10 km
Cloud details: Few Clouds 518 m
Mostly cloudy 1097 m
2019/11/17 22:20 EGCC 172220Z AUTO 33006KT 9999 FEW017 BKN036 06/04 Q1017 NOSIG
EGBB - Birmingham Airpo, United Kingdom
Distance: SSW 46mi, 74km
Updated: 17/11/2019 22:20
Mostly cloudy
Mostly cloudy
 Wind from NNW
Wind: NNW 7 mph , 11 km/h
Temperature: 6°C
Wind Chill: 4°C
Dew Point: 5°C
Humidity: 93%
Barometer: 1015 hPa
Clouds: Mostly cloudy
Visibility: 6 miles , 10 km
Cloud details: Mostly cloudy 335 m
2019/11/17 22:20 EGBB 172220Z 34006KT 9999 BKN011 06/05 Q1015
EGXC - Coningsby Raf, United Kingdom
Distance: E 47mi, 75km
Updated: 17/11/2019 21:50
Mostly cloudy
Mostly cloudy
 Wind from N
Wind: N 8 mph , 13 km/h
Temperature: 7°C
Wind Chill: 5°C
Dew Point: 5°C
Humidity: 87%
Barometer: 1014 hPa
Clouds: Mostly cloudy
Visibility: 6 miles , 10 km
Cloud details: Mostly cloudy 1067 m
2019/11/17 21:50 EGXC 172150Z 35007KT 9999 BKN035 07/05 Q1014 RMK BLU
 
EGXT - Wittering Raf, United Kingdom
Distance: SE 47mi, 75km
Updated: 17/11/2019 21:50
Mostly cloudy
Mostly cloudy
 Wind from N
Wind: N 12 mph , 19 km/h
Temperature: 7°C
Wind Chill: 4°C
Dew Point: 6°C
Humidity: 93%
Barometer: 1013 hPa
Clouds: Mostly cloudy
Visibility: 6 miles , 10 km
Cloud details: Few Clouds 884 m
Mostly cloudy 1189 m
Mostly cloudy 1463 m
2019/11/17 21:50 EGXT 172150Z AUTO 01010KT 9999 FEW029/// BKN039/// BKN048/// 07/06 Q1013
EGNJ - Humberside, United Kingdom
Distance: NE 52mi, 83km
Updated: 17/11/2019 22:20
Mostly cloudy
Mostly cloudy
 Wind from N
Wind: N 9 mph , 15 km/h
Temperature: 6°C
Wind Chill: 3°C
Dew Point: 5°C
Humidity: 93%
Barometer: 1015 hPa
Clouds: Mostly cloudy
Visibility: 6 miles , 10 km
Cloud details: Mostly cloudy 914 m
2019/11/17 22:20 EGNJ 172220Z AUTO 35008KT 9999 BKN030/// 06/05 Q1015
EGWC - Cosford Raf, United Kingdom
Distance: SW 52mi, 83km
Updated: 16/11/2019 08:50
NOT Current
Light rain, Partly cloudy
Light rain, Partly cloudy
 Wind from NE
Wind: NE 3 mph , 6 km/h
Temperature: 6°C
Dew Point: 6°C
Humidity: 100%
Barometer: 1007 hPa
Summary: Light rain
Clouds: Partly cloudy
Visibility: 2 miles , 3 km
Cloud details: Partly cloudy 122 m
2019/11/16 08:50 EGWC 160850Z 03503KT 3000 -RA SCT004 06/06 Q1007
 
EGNM - Leeds And Bradfo, United Kingdom
Distance: NNW 57mi, 91km
Updated: 17/11/2019 22:20
Mostly cloudy
Mostly cloudy
 Wind from N
Wind: N 10 mph , 17 km/h
Temperature: 5°C
Wind Chill: 2°C
Dew Point: 4°C
Humidity: 93%
Barometer: 1016 hPa
Clouds: Mostly cloudy
Visibility: 6 miles , 10 km
Cloud details: Mostly cloudy 853 m
2019/11/17 22:20 EGNM 172220Z 36009KT 9999 BKN028 05/04 Q1016
EGOS - Shawbury Raf, United Kingdom
Distance: WSW 60mi, 97km
Updated: 17/11/2019 21:50
Mist, Few clouds
Mist, Few clouds
 Wind from NNW
Wind: NNW 8 mph , 13 km/h
Temperature: 5°C
Wind Chill: 2°C
Dew Point: 4°C
Humidity: 93%
Barometer: 1016 hPa
Summary: Mist
Clouds: Few Clouds
Visibility: 4 miles , 7 km
Cloud details: Few Clouds 3048 m
2019/11/17 21:50 EGOS 172150Z AUTO 34007KT 7000 BR FEW100/// 05/04 Q1016
EGYH - Holbeach (aut), United Kingdom
Distance: ESE 62mi, 99km
Updated: 15/11/2019 09:50
NOT Current
Partly cloudy
Partly cloudy
 Wind from ENE
Wind: ENE 24 mph , 39 km/h
Temperature: 9°C
Wind Chill: 4°C
Dew Point: 6°C
Humidity: 82%
Barometer: 1006 hPa
Clouds: Partly cloudy
Visibility: 6 miles , 10 km
Cloud details: Few Clouds 457 m
Partly cloudy 1219 m
2019/11/15 09:50 EGYH 150950Z 06021KT 9999 FEW015 SCT040 09/06 Q1006 RMK BLU
 
EGXV - Leconfield (aut), United Kingdom
Distance: NNE 65mi, 105km
Updated: 17/11/2019 21:50
Partly cloudy
Partly cloudy
 Wind from NNW
Wind: NNW 7 mph , 11 km/h
Temperature: 6°C
Wind Chill: 4°C
Dew Point: 4°C
Humidity: 87%
Barometer: 1015 hPa
Clouds: Partly cloudy
Visibility: 6 miles , 10 km
Cloud details: Partly cloudy 975 m
2019/11/17 21:50 EGXV 172150Z AUTO 34006KT 9999 SCT032/// 06/04 Q1015
EGXS - Donna Nook Raf, United Kingdom
Distance: ENE 66mi, 106km
Updated: 17/11/2019 13:50
NOT Current
Mostly cloudy
Mostly cloudy
 Wind from NNE
Wind: NNE 22 mph , 35 km/h
Temperature: 9°C
Wind Chill: 5°C
Dew Point: 7°C
Humidity: 87%
Barometer: 1012 hPa
Clouds: Mostly cloudy
Visibility: 6 miles , 10 km
Cloud details: Mostly cloudy 549 m
2019/11/17 13:50 EGXS 171350Z AUTO 02019KT 9999 // BKN018/// 09/07 Q1012
EGGP - Liverpool Airpor, United Kingdom
Distance: WNW 67mi, 107km
Updated: 17/11/2019 22:20
Few Clouds
Few Clouds
 Wind from NNW
Wind: NNW 9 mph , 15 km/h
Temperature: 6°C
Wind Chill: 3°C
Dew Point: 5°C
Humidity: 93%
Barometer: 1017 hPa
Clouds: Few Clouds
Visibility: 6 miles , 10 km
Cloud details: Few Clouds 1219 m
2019/11/17 22:20 EGGP 172220Z 34008KT 320V020 9999 FEW040 06/05 Q1017
 
EGXU - Linton-On-Ouse R, United Kingdom
Distance: N 68mi, 109km
Updated: 17/11/2019 21:50
Mostly cloudy
Mostly cloudy
 Wind from NNW
Wind: NNW 10 mph , 17 km/h
Temperature: 6°C
Wind Chill: 3°C
Dew Point: 5°C
Humidity: 93%
Barometer: 1016 hPa
Clouds: Mostly cloudy
Visibility: 6 miles , 10 km
Cloud details: Few Clouds 945 m
Mostly cloudy 1128 m
2019/11/17 21:50 EGXU 172150Z AUTO 33009KT 9999 // FEW031/// BKN037/// 06/05 Q1016
EGNR - Hawarden (aut), United Kingdom
Distance: W 70mi, 112km
Updated: 17/11/2019 18:50
NOT Current
Partly cloudy
Partly cloudy
 Wind from NW
Wind: NW 9 mph , 15 km/h
Temperature: 6°C
Wind Chill: 3°C
Dew Point: 5°C
Humidity: 93%
Barometer: 1017 hPa
Clouds: Partly cloudy
Visibility: 6 miles , 10 km
Cloud details: Few Clouds 640 m
Partly cloudy 1311 m
2019/11/17 18:50 EGNR 171850Z 32008KT 9999 FEW021 SCT043 06/05 Q1017